TimeCDT,TemperatureF,Dew PointF,Humidity,Sea Level PressureIn,VisibilityMPH,Wind Direction,Wind SpeedMPH,Gust SpeedMPH,PrecipitationIn,Events,Conditions,WindDirDegrees,DateUTC
12:53 AM,27.0,14.0,58,30.20,10.0,WNW,6.9,-,N/A,,Clear,300,2013-04-02 05:53:00
1:53 AM,27.0,12.9,56,30.20,10.0,WNW,8.1,-,N/A,,Clear,300,2013-04-02 06:53:00
2:53 AM,26.1,14.0,60,30.20,10.0,WNW,8.1,-,N/A,,Clear,290,2013-04-02 07:53:00
3:53 AM,24.1,14.0,65,30.21,10.0,West,6.9,-,N/A,,Clear,270,2013-04-02 08:53:00
4:53 AM,24.1,15.1,69,30.21,10.0,West,6.9,-,N/A,,Clear,280,2013-04-02 09:53:00
5:53 AM,23.0,15.1,72,30.23,10.0,West,8.1,-,N/A,,Clear,270,2013-04-02 10:53:00
6:53 AM,23.0,15.1,72,30.24,10.0,West,8.1,-,N/A,,Clear,270,2013-04-02 11:53:00
7:53 AM,28.0,16.0,61,30.26,10.0,WNW,11.5,-,N/A,,Clear,290,2013-04-02 12:53:00
8:53 AM,30.9,15.1,52,30.27,10.0,NW,11.5,18.4,N/A,,Clear,310,2013-04-02 13:53:00
9:53 AM,34.0,15.1,46,30.27,10.0,NW,10.4,-,N/A,,Clear,310,2013-04-02 14:53:00
10:53 AM,36.0,12.9,39,30.27,10.0,West,15.0,-,N/A,,Clear,280,2013-04-02 15:53:00
11:53 AM,37.9,15.1,39,30.27,10.0,West,15.0,19.6,N/A,,Clear,280,2013-04-02 16:53:00
12:53 PM,39.9,15.1,36,30.25,10.0,WNW,16.1,25.3,N/A,,Partly Cloudy,300,2013-04-02 17:53:00
1:53 PM,41.0,12.9,32,30.24,10.0,WNW,16.1,23.0,N/A,,Partly Cloudy,300,2013-04-02 18:53:00
2:53 PM,41.0,10.9,29,30.24,10.0,NW,17.3,26.5,N/A,,Partly Cloudy,310,2013-04-02 19:53:00
3:53 PM,39.9,10.9,31,30.24,10.0,NW,13.8,19.6,N/A,,Mostly Cloudy,310,2013-04-02 20:53:00
4:53 PM,41.0,12.0,31,30.25,10.0,NW,9.2,-,N/A,,Scattered Clouds,310,2013-04-02 21:53:00
5:53 PM,39.0,10.0,30,30.25,10.0,NW,9.2,-,N/A,,Scattered Clouds,320,2013-04-02 22:53:00
6:53 PM,37.9,12.0,35,30.27,10.0,NNW,9.2,-,N/A,,Scattered Clouds,330,2013-04-02 23:53:00
7:53 PM,34.0,12.9,42,30.28,10.0,NNW,4.6,-,N/A,,Clear,330,2013-04-03 00:53:00
8:53 PM,33.1,14.0,46,30.30,10.0,NNW,3.5,-,N/A,,Clear,330,2013-04-03 01:53:00
9:53 PM,30.0,12.9,49,30.31,10.0,Calm,Calm,-,N/A,,Clear,0,2013-04-03 02:53:00
10:53 PM,25.0,14.0,63,30.32,10.0,NW,3.5,-,N/A,,Clear,310,2013-04-03 03:53:00
11:53 PM,28.9,14.0,54,30.32,10.0,Calm,Calm,-,N/A,,Clear,0,2013-04-03 04:53:00